Terminal Aerodrome Forecast
Issued by NWS

Home | Current Version | Previous Version | Text Only | Print | Product List | Glossary On
Versions: 1 2 3 4 5 6 7 8 9 10 11 12 13 14 15 16 17 18 19 20 21 22 23
000
FTUS41 KBUF 272000 AAA
TAFIAG
TAF AMD
KIAG 272059Z 2721/2818 20014G22KT P6SM SCT030 BKN080
     FM272300 21016G30KT P6SM OVC040
     FM280500 23017G24KT 6SM -RA OVC025
     FM280800 27015G22KT P6SM VCSH OVC090
     FM281100 29012KT P6SM BKN200=

USA.gov is the U.S. government's official web portal to all federal, state and local government web resources and services.